Maersk Jubail — 9HA4558 — position and weather

sailwx.info

Track history (hours):
 
Tides and Currents Weather Stations Pressure Air Temp Water Temp Dewpoint Dewpoint Depression Visibility Wind Speed Wind Dir Waves Ship Positions

Maersk Jubail

Last reported at 2018-May-21 21:50 UTC. Time now 2018-May-25 05:24 UTC.
Position N 07°60' W 014°41'.

Length 222 m; draft 11.1 m.

Type: Cargo ship. MMSI: 248206000.

Date/timePositionNaut miles runAvg speedWind from/ knotsBaromVisibWave heightAir tempDewpointWater temp
2018-May-21 21:50N 07°60' W 014°41'513.9
2018-May-21 21:28N 08°02' W 014°46'1213.9
2018-May-21 20:38N 08°09' W 014°55'513.9
2018-May-21 20:17N 08°13' W 014°59'1014.2
2018-May-21 19:33N 08°19' W 015°07'114.3
2018-May-21 19:29N 08°20' W 015°07'9614.2
2018-May-21 12:44N 09°30' W 016°13'415.4
2018-May-21 12:30N 09°33' W 016°16'  
2018-May-16 15:00N 35°51' W 005°59'815.4
2018-May-16 14:29N 35°55' W 005°50'816.0
2018-May-16 14:00N 35°58' W 005°41'815.9
2018-May-16 13:30N 35°59' W 005°32'713.8
2018-May-16 13:00N 36°03' W 005°24'612.0
2018-May-16 12:30N 36°09' W 005°25'1 2.2
2018-May-16 11:59N 36°08' W 005°26'0 0.0
2018-May-16 11:29N 36°08' W 005°26'0 0.0
2018-May-16 10:59N 36°08' W 005°26'0 0.0
2018-May-16 10:29N 36°08' W 005°26'0 0.0
2018-May-16 09:59N 36°08' W 005°26'0 0.0
2018-May-16 09:29N 36°08' W 005°26'0 0.0
2018-May-16 08:59N 36°08' W 005°26'0 0.0
2018-May-16 08:29N 36°08' W 005°26'0 0.0
2018-May-16 07:59N 36°08' W 005°26'0 0.0
2018-May-16 07:17N 36°08' W 005°26'0 0.0
2018-May-16 06:59N 36°08' W 005°26'0 0.0
2018-May-16 06:29N 36°08' W 005°26'0 0.0
2018-May-16 05:53N 36°08' W 005°26'0 0.0
2018-May-16 05:29N 36°08' W 005°26'0 0.0
2018-May-16 04:59N 36°08' W 005°26'0 0.0
2018-May-16 04:29N 36°08' W 005°26'0 0.0
2018-May-16 03:56N 36°08' W 005°26'0 0.0
2018-May-16 03:29N 36°08' W 005°26'0 0.0
2018-May-16 02:59N 36°08' W 005°26'0 0.0
2018-May-16 02:29N 36°08' W 005°26'0 0.0
2018-May-16 01:59N 36°08' W 005°26'0 0.0
2018-May-16 01:29N 36°08' W 005°26'0 0.0
2018-May-16 00:59N 36°08' W 005°26'0 0.0
2018-May-16 00:29N 36°08' W 005°26'0 0.0
2018-May-15 23:59N 36°08' W 005°26'1 1.6
2018-May-15 23:30N 36°09' W 005°26'2 4.1
2018-May-15 23:00N 36°10' W 005°24'0 0.1
2018-May-15 22:01N 36°10' W 005°23'0 0.1
2018-May-15 21:55N 36°10' W 005°23'0 0.0
2018-May-15 21:31N 36°10' W 005°23'0 0.2
2018-May-15 20:43N 36°10' W 005°23'0 0.2
2018-May-15 20:28N 36°10' W 005°23'0 0.2
2018-May-15 20:01N 36°10' W 005°24'0 0.0
2018-May-15 16:40N 36°10' W 005°24'0 0.1
2018-May-15 16:25N 36°10' W 005°24'0 0.0
2018-May-15 15:55N 36°10' W 005°24'0 0.1
2018-May-15 15:25N 36°10' W 005°24'0 0.1
2018-May-15 14:58N 36°10' W 005°24'0 0.1
2018-May-15 14:25N 36°10' W 005°24'0 0.0
2018-May-15 14:01N 36°10' W 005°24'0 0.0
2018-May-15 13:22N 36°10' W 005°24'0 0.1
2018-May-15 12:58N 36°10' W 005°24'0 0.1
2018-May-15 12:25N 36°10' W 005°24'0 0.2
2018-May-15 11:49N 36°10' W 005°24'0 0.2
2018-May-15 11:31N 36°10' W 005°23'0 0.0
2018-May-15 10:43N 36°10' W 005°24'0 0.1
2018-May-15 10:28N 36°10' W 005°23'0 0.1
2018-May-15 09:59N 36°10' W 005°24'0 0.0
2018-May-15 09:30N 36°10' W 005°24'1 2.8
2018-May-15 09:00N 36°09' W 005°24'2 4.6
2018-May-15 08:30N 36°06' W 005°24'4 8.5
2018-May-15 08:00N 36°02' W 005°24'713.0
2018-May-15 07:30N 35°57' W 005°28'  
2018-May-12 15:29N 35°58' W 005°38'5 9.6
2018-May-12 14:58N 35°59' W 005°32'4 9.6
2018-May-12 14:30N 36°01' W 005°27'4 8.9
2018-May-12 14:00N 36°04' W 005°24'5 9.7
2018-May-12 13:30N 36°09' W 005°25'1 1.6
2018-May-12 12:58N 36°09' W 005°26'0 0.0
2018-May-12 12:28N 36°09' W 005°26'0 0.0
2018-May-12 11:58N 36°09' W 005°26'0 0.0
2018-May-12 11:28N 36°09' W 005°26'0 0.0
2018-May-12 10:58N 36°09' W 005°26'0 0.0
2018-May-12 10:28N 36°09' W 005°26'0 0.0
2018-May-12 09:58N 36°09' W 005°26'0 0.0
2018-May-12 09:28N 36°09' W 005°26'0 0.0
2018-May-12 08:58N 36°09' W 005°26'0 0.0
2018-May-12 08:28N 36°09' W 005°26'0 0.0
2018-May-12 07:58N 36°09' W 005°26'0 0.0
2018-May-12 07:30N 36°09' W 005°26'0 0.0
2018-May-12 06:58N 36°09' W 005°26'0 0.0
2018-May-12 06:28N 36°09' W 005°26'0 0.0
2018-May-12 05:58N 36°09' W 005°26'0 0.0
2018-May-12 05:29N 36°09' W 005°26'0 0.0
2018-May-12 04:58N 36°09' W 005°26'0 0.0
2018-May-12 04:28N 36°09' W 005°26'0 0.0
2018-May-12 03:58N 36°09' W 005°26'0 0.0
2018-May-12 03:29N 36°09' W 005°26'0 0.0
2018-May-12 02:58N 36°09' W 005°26'0 0.0
2018-May-12 02:28N 36°09' W 005°26'0 0.0
2018-May-12 01:58N 36°09' W 005°26'0 0.0
2018-May-12 01:28N 36°09' W 005°26'0 0.0
2018-May-12 00:58N 36°09' W 005°26'0 0.0
2018-May-12 00:25N 36°09' W 005°26'0 0.0
2018-May-11 23:58N 36°09' W 005°26'1 1.2
2018-May-11 23:30N 36°09' W 005°26'2 4.9
2018-May-11 23:00N 36°07' W 005°23'611.5
2018-May-11 22:30N 36°02' W 005°24'815.9
2018-May-11 22:00N 35°57' W 005°32'  
Track history (hours):
 
Tides and Currents Weather Stations Pressure Air Temp Water Temp Dewpoint Dewpoint Depression Visibility Wind Speed Wind Dir Waves Ship Positions

Maersk Jubail

Last reported at 2018-May-21 21:50 UTC. Time now 2018-May-25 05:24 UTC.
Position N 07°60' W 014°41'.

Length 222 m; draft 11.1 m.

Type: Cargo ship. MMSI: 248206000.

Date/timePositionNaut miles runAvg speedWind from/ knotsBaromVisibWave heightAir tempDewpointWater temp
2018-May-21 21:50N 07°60' W 014°41'513.9
2018-May-21 21:28N 08°02' W 014°46'1213.9
2018-May-21 20:38N 08°09' W 014°55'513.9
2018-May-21 20:17N 08°13' W 014°59'1014.2
2018-May-21 19:33N 08°19' W 015°07'114.3
2018-May-21 19:29N 08°20' W 015°07'9614.2
2018-May-21 12:44N 09°30' W 016°13'415.4
2018-May-21 12:30N 09°33' W 016°16'  
2018-May-16 15:00N 35°51' W 005°59'815.4
2018-May-16 14:29N 35°55' W 005°50'816.0
2018-May-16 14:00N 35°58' W 005°41'815.9
2018-May-16 13:30N 35°59' W 005°32'713.8
2018-May-16 13:00N 36°03' W 005°24'612.0
2018-May-16 12:30N 36°09' W 005°25'1 2.2
2018-May-16 11:59N 36°08' W 005°26'0 0.0
2018-May-16 11:29N 36°08' W 005°26'0 0.0
2018-May-16 10:59N 36°08' W 005°26'0 0.0
2018-May-16 10:29N 36°08' W 005°26'0 0.0
2018-May-16 09:59N 36°08' W 005°26'0 0.0
2018-May-16 09:29N 36°08' W 005°26'0 0.0
2018-May-16 08:59N 36°08' W 005°26'0 0.0
2018-May-16 08:29N 36°08' W 005°26'0 0.0
2018-May-16 07:59N 36°08' W 005°26'0 0.0
2018-May-16 07:17N 36°08' W 005°26'0 0.0
2018-May-16 06:59N 36°08' W 005°26'0 0.0
2018-May-16 06:29N 36°08' W 005°26'0 0.0
2018-May-16 05:53N 36°08' W 005°26'0 0.0
2018-May-16 05:29N 36°08' W 005°26'0 0.0
2018-May-16 04:59N 36°08' W 005°26'0 0.0
2018-May-16 04:29N 36°08' W 005°26'0 0.0
2018-May-16 03:56N 36°08' W 005°26'0 0.0
2018-May-16 03:29N 36°08' W 005°26'0 0.0
2018-May-16 02:59N 36°08' W 005°26'0 0.0
2018-May-16 02:29N 36°08' W 005°26'0 0.0
2018-May-16 01:59N 36°08' W 005°26'0 0.0
2018-May-16 01:29N 36°08' W 005°26'0 0.0
2018-May-16 00:59N 36°08' W 005°26'0 0.0
2018-May-16 00:29N 36°08' W 005°26'0 0.0
2018-May-15 23:59N 36°08' W 005°26'1 1.6
2018-May-15 23:30N 36°09' W 005°26'2 4.1
2018-May-15 23:00N 36°10' W 005°24'0 0.1
2018-May-15 22:01N 36°10' W 005°23'0 0.1
2018-May-15 21:55N 36°10' W 005°23'0 0.0
2018-May-15 21:31N 36°10' W 005°23'0 0.2
2018-May-15 20:43N 36°10' W 005°23'0 0.2
2018-May-15 20:28N 36°10' W 005°23'0 0.2
2018-May-15 20:01N 36°10' W 005°24'0 0.0
2018-May-15 16:40N 36°10' W 005°24'0 0.1
2018-May-15 16:25N 36°10' W 005°24'0 0.0
2018-May-15 15:55N 36°10' W 005°24'0 0.1
2018-May-15 15:25N 36°10' W 005°24'0 0.1
2018-May-15 14:58N 36°10' W 005°24'0 0.1
2018-May-15 14:25N 36°10' W 005°24'0 0.0
2018-May-15 14:01N 36°10' W 005°24'0 0.0
2018-May-15 13:22N 36°10' W 005°24'0 0.1
2018-May-15 12:58N 36°10' W 005°24'0 0.1
2018-May-15 12:25N 36°10' W 005°24'0 0.2
2018-May-15 11:49N 36°10' W 005°24'0 0.2
2018-May-15 11:31N 36°10' W 005°23'0 0.0
2018-May-15 10:43N 36°10' W 005°24'0 0.1
2018-May-15 10:28N 36°10' W 005°23'0 0.1
2018-May-15 09:59N 36°10' W 005°24'0 0.0
2018-May-15 09:30N 36°10' W 005°24'1 2.8
2018-May-15 09:00N 36°09' W 005°24'2 4.6
2018-May-15 08:30N 36°06' W 005°24'4 8.5
2018-May-15 08:00N 36°02' W 005°24'713.0
2018-May-15 07:30N 35°57' W 005°28'  
2018-May-12 15:29N 35°58' W 005°38'5 9.6
2018-May-12 14:58N 35°59' W 005°32'4 9.6
2018-May-12 14:30N 36°01' W 005°27'4 8.9
2018-May-12 14:00N 36°04' W 005°24'5 9.7
2018-May-12 13:30N 36°09' W 005°25'1 1.6
2018-May-12 12:58N 36°09' W 005°26'0 0.0
2018-May-12 12:28N 36°09' W 005°26'0 0.0
2018-May-12 11:58N 36°09' W 005°26'0 0.0
2018-May-12 11:28N 36°09' W 005°26'0 0.0
2018-May-12 10:58N 36°09' W 005°26'0 0.0
2018-May-12 10:28N 36°09' W 005°26'0 0.0
2018-May-12 09:58N 36°09' W 005°26'0 0.0
2018-May-12 09:28N 36°09' W 005°26'0 0.0
2018-May-12 08:58N 36°09' W 005°26'0 0.0
2018-May-12 08:28N 36°09' W 005°26'0 0.0
2018-May-12 07:58N 36°09' W 005°26'0 0.0
2018-May-12 07:30N 36°09' W 005°26'0 0.0
2018-May-12 06:58N 36°09' W 005°26'0 0.0
2018-May-12 06:28N 36°09' W 005°26'0 0.0
2018-May-12 05:58N 36°09' W 005°26'0 0.0
2018-May-12 05:29N 36°09' W 005°26'0 0.0
2018-May-12 04:58N 36°09' W 005°26'0 0.0
2018-May-12 04:28N 36°09' W 005°26'0 0.0
2018-May-12 03:58N 36°09' W 005°26'0 0.0
2018-May-12 03:29N 36°09' W 005°26'0 0.0
2018-May-12 02:58N 36°09' W 005°26'0 0.0
2018-May-12 02:28N 36°09' W 005°26'0 0.0
2018-May-12 01:58N 36°09' W 005°26'0 0.0
2018-May-12 01:28N 36°09' W 005°26'0 0.0
2018-May-12 00:58N 36°09' W 005°26'0 0.0
2018-May-12 00:25N 36°09' W 005°26'0 0.0
2018-May-11 23:58N 36°09' W 005°26'1 1.2
2018-May-11 23:30N 36°09' W 005°26'2 4.9
2018-May-11 23:00N 36°07' W 005°23'611.5
2018-May-11 22:30N 36°02' W 005°24'815.9
2018-May-11 22:00N 35°57' W 005°32'  

Dump ship's entire track history